Time;durP1;ratioP1;P1;durP2;ratioP2;P2;SDS_P1;SDS_P2;PMS_P1;PMS_P2;Temp;Humidity;BMP_temperature;BMP_pressure;BME280_temperature;BME280_humidity;BME280_pressure;Samples;Min_cycle;Max_cycle;Signal;HPM_P1;HPM_P2
2023/07/09 00:01:14;;;;;;;5.38;4.03;;;;;;;21.61;90.02;96259.09;5029864;28;24489;-79
2023/07/09 00:03:41;;;;;;;4.93;3.78;;;;;;;21.63;88.81;96257.16;5023660;28;24802;-79
2023/07/09 00:06:08;;;;;;;8.98;4.22;;;;;;;21.58;89.94;96259.41;5026456;28;24443;-79
2023/07/09 00:08:35;;;;;;;6.15;3.50;;;;;;;21.40;90.93;96259.44;5023709;28;24444;-78
2023/07/09 00:11:01;;;;;;;6.68;3.80;;;;;;;21.47;90.42;96263.94;5025725;28;24432;-80
2023/07/09 00:13:29;;;;;;;6.30;4.00;;;;;;;21.48;90.19;96262.97;5028393;28;24439;-78
2023/07/09 00:16:00;;;;;;;9.02;3.80;;;;;;;21.46;90.65;96270.16;5018080;28;24444;-78
2023/07/09 00:18:26;;;;;;;9.02;4.03;;;;;;;21.43;90.99;96265.22;5030533;28;24440;-78
2023/07/09 00:20:52;;;;;;;6.32;3.75;;;;;;;21.44;90.06;96273.97;5031173;28;24435;-77
2023/07/09 00:23:20;;;;;;;6.23;3.90;;;;;;;21.42;90.15;96271.47;5036564;28;25019;-76
2023/07/09 00:25:47;;;;;;;6.35;3.75;;;;;;;21.36;90.96;96264.19;5028939;28;24530;-77
2023/07/09 00:28:15;;;;;;;4.83;3.67;;;;;;;21.38;90.75;96264.84;5034214;28;26045;-77
2023/07/09 00:30:43;;;;;;;5.93;4.20;;;;;;;21.24;92.21;96267.97;5032441;28;24543;-77
2023/07/09 00:33:14;;;;;;;5.15;3.72;;;;;;;20.85;95.80;96265.59;5026947;28;24440;-78
2023/07/09 00:35:40;;;;;;;6.35;3.90;;;;;;;20.57;98.56;96263.94;5027448;28;25074;-78
2023/07/09 00:38:13;;;;;;;7.28;4.30;;;;;;;20.41;100.00;96264.53;5029539;28;24440;-77
2023/07/09 00:40:48;;;;;;;10.05;5.30;;;;;;;20.28;100.00;96275.38;5023997;28;24462;-77
2023/07/09 00:43:16;;;;;;;12.88;6.68;;;;;;;20.17;100.00;96273.78;5029142;28;24458;-77
2023/07/09 00:45:45;;;;;;;17.92;7.78;;;;;;;20.04;100.00;96266.19;5030735;28;25113;-77
2023/07/09 00:48:16;;;;;;;20.33;9.20;;;;;;;19.93;100.00;96274.25;5031580;28;24439;-77
2023/07/09 00:50:49;;;;;;;13.77;8.05;;;;;;;19.86;100.00;96272.31;5028106;28;24447;-77
2023/07/09 00:53:22;;;;;;;16.05;7.15;;;;;;;19.89;100.00;96272.03;5024126;28;24432;-76
2023/07/09 00:55:56;;;;;;;13.27;6.78;;;;;;;19.93;100.00;96263.72;5025847;28;24440;-77
2023/07/09 00:58:26;;;;;;;12.43;7.10;;;;;;;19.93;100.00;96274.25;5023882;28;24978;-77
2023/07/09 01:00:59;;;;;;;14.13;6.70;;;;;;;19.81;100.00;96278.00;5026227;28;24447;-77
2023/07/09 01:03:33;;;;;;;15.38;6.38;;;;;;;19.68;100.00;96277.44;5028302;28;24835;-77
2023/07/09 01:05:59;;;;;;;14.23;5.97;;;;;;;19.61;100.00;96287.66;5029601;28;24974;-77
2023/07/09 01:08:27;;;;;;;13.03;6.97;;;;;;;19.67;100.00;96281.88;5032424;28;24432;-77
2023/07/09 01:10:53;;;;;;;12.38;6.88;;;;;;;19.70;100.00;96284.25;5025624;28;24482;-78
2023/07/09 01:13:20;;;;;;;17.50;6.90;;;;;;;19.72;100.00;96279.66;5029032;28;24444;-78
2023/07/09 01:15:48;;;;;;;12.97;5.90;;;;;;;19.71;100.00;96280.63;5018774;28;24526;-78
2023/07/09 01:18:15;;;;;;;8.00;5.32;;;;;;;19.79;100.00;96282.56;5025928;28;24432;-77
2023/07/09 01:20:43;;;;;;;8.40;5.78;;;;;;;19.83;100.00;96287.38;5022555;28;24459;-77
2023/07/09 01:23:11;;;;;;;9.65;5.63;;;;;;;19.77;100.00;96290.59;5028135;28;25021;-77
2023/07/09 01:25:43;;;;;;;8.63;5.50;;;;;;;19.70;100.00;96289.50;5028817;28;24436;-77
2023/07/09 01:28:10;;;;;;;10.13;4.90;;;;;;;19.57;100.00;96286.28;5027082;28;24439;-78
2023/07/09 01:30:39;;;;;;;6.32;4.68;;;;;;;19.53;100.00;96288.34;5020951;28;24825;-77
2023/07/09 01:33:07;;;;;;;7.88;4.68;;;;;;;19.52;100.00;96283.25;5024913;28;24822;-77
2023/07/09 01:35:37;;;;;;;10.65;4.57;;;;;;;19.51;100.00;96290.31;5024284;28;24542;-77
2023/07/09 01:38:06;;;;;;;6.97;4.60;;;;;;;19.43;100.00;96279.66;5031142;28;24447;-76
2023/07/09 01:40:35;;;;;;;7.95;4.88;;;;;;;19.29;100.00;96282.69;5026208;28;24445;-77
2023/07/09 01:43:06;;;;;;;6.53;4.80;;;;;;;19.32;100.00;96282.44;5028163;28;24527;-78
2023/07/09 01:45:33;;;;;;;10.25;5.20;;;;;;;19.41;100.00;96280.75;5023531;28;24536;-78
2023/07/09 01:47:59;;;;;;;6.65;4.53;;;;;;;19.41;100.00;96280.75;5028234;28;24471;-77
2023/07/09 01:50:26;;;;;;;8.13;4.73;;;;;;;19.41;100.00;96271.09;5028587;28;24440;-77
2023/07/09 01:52:54;;;;;;;7.25;4.68;;;;;;;19.21;100.00;96277.31;5031137;28;24432;-77
2023/07/09 01:55:21;;;;;;;8.38;4.38;;;;;;;18.94;100.00;96272.69;5031897;28;24458;-77
2023/07/09 01:57:51;;;;;;;6.07;4.18;;;;;;;18.77;100.00;96269.78;5020866;28;24436;-77
2023/07/09 02:00:18;;;;;;;6.57;4.32;;;;;;;18.70;100.00;96273.88;5028669;28;25043;-77
2023/07/09 02:02:47;;;;;;;6.20;4.28;;;;;;;18.67;100.00;96270.69;5027283;28;24455;-77
2023/07/09 02:05:15;;;;;;;5.95;4.05;;;;;;;18.68;100.00;96267.91;5030012;28;24531;-78
2023/07/09 02:07:42;;;;;;;8.20;4.35;;;;;;;18.68;100.00;96273.16;5024578;28;24482;-76
2023/07/09 02:10:13;;;;;;;7.57;4.32;;;;;;;18.63;100.00;96276.19;5019752;28;24436;-77
2023/07/09 02:12:39;;;;;;;11.13;4.23;;;;;;;18.59;100.00;96280.03;5027147;28;24444;-76
2023/07/09 02:15:09;;;;;;;6.60;4.45;;;;;;;18.66;100.00;96277.72;5023254;28;24462;-76
2023/07/09 02:17:35;;;;;;;6.60;4.50;;;;;;;18.67;100.00;96279.38;5030088;28;24440;-77
2023/07/09 02:20:03;;;;;;;7.57;4.73;;;;;;;18.68;100.00;96275.78;5025713;28;24448;-78
2023/07/09 02:22:30;;;;;;;6.47;4.37;;;;;;;18.67;100.00;96270.69;5027280;28;24439;-76
2023/07/09 02:24:56;;;;;;;6.75;4.43;;;;;;;18.70;100.00;96273.88;5022545;28;24483;-77
2023/07/09 02:27:22;;;;;;;6.03;4.35;;;;;;;18.71;100.00;96277.34;5026408;28;24852;-77
2023/07/09 02:29:49;;;;;;;9.25;4.45;;;;;;;18.75;100.00;96286.59;5028149;28;24482;-77
2023/07/09 02:32:21;;;;;;;8.60;4.32;;;;;;;18.83;100.00;96281.50;5023831;28;24439;-77
2023/07/09 02:34:48;;;;;;;6.95;4.80;;;;;;;18.92;100.00;96287.75;5025350;28;24428;-76
2023/07/09 02:37:16;;;;;;;7.97;4.22;;;;;;;18.86;100.00;96286.50;5032997;28;24473;-77
2023/07/09 02:39:42;;;;;;;7.10;4.15;;;;;;;18.89;100.00;96280.97;5030376;28;24443;-77
2023/07/09 02:42:10;;;;;;;7.38;4.43;;;;;;;18.86;100.00;96278.63;5024843;28;24854;-78
2023/07/09 02:44:36;;;;;;;6.75;4.15;;;;;;;18.80;100.00;96279.16;5027749;28;24485;-77
2023/07/09 02:47:02;;;;;;;7.32;4.68;;;;;;;18.76;100.00;96283.88;5027068;28;24845;-77
2023/07/09 02:49:30;;;;;;;6.43;4.57;;;;;;;18.59;100.00;96287.09;5028716;28;24716;-78
2023/07/09 02:51:57;;;;;;;11.65;3.92;;;;;;;18.40;100.00;96293.09;5036717;28;24848;-78
2023/07/09 02:54:23;;;;;;;12.27;4.53;;;;;;;18.21;100.00;96291.22;5021448;28;24447;-78
2023/07/09 02:56:50;;;;;;;5.82;3.90;;;;;;;18.13;100.00;96291.00;5036543;28;24461;-77
2023/07/09 02:59:16;;;;;;;6.77;4.23;;;;;;;18.12;100.00;96290.19;5026829;28;24771;-77
2023/07/09 03:01:43;;;;;;;5.65;3.83;;;;;;;18.10;100.00;96289.50;5023742;28;24455;-78
2023/07/09 03:04:09;;;;;;;7.45;4.18;;;;;;;18.11;100.00;96290.31;5026280;28;24542;-77
2023/07/09 03:06:38;;;;;;;7.03;4.30;;;;;;;18.01;100.00;96290.25;5023986;28;24471;-76
2023/07/09 03:09:05;;;;;;;5.55;3.90;;;;;;;17.97;100.00;96296.72;5025645;28;25009;-78
2023/07/09 03:11:32;;;;;;;5.57;4.07;;;;;;;18.00;100.00;96296.47;5035977;28;24505;-76
2023/07/09 03:14:00;;;;;;;6.05;4.57;;;;;;;18.01;100.00;96295.50;5031617;28;24435;-77
2023/07/09 03:16:27;;;;;;;6.35;4.50;;;;;;;18.06;100.00;96290.72;5021590;28;24799;-77
2023/07/09 03:18:54;;;;;;;7.47;4.22;;;;;;;18.05;100.00;96299.53;5026429;28;24428;-78
2023/07/09 03:21:20;;;;;;;5.95;4.40;;;;;;;18.05;100.00;96293.47;5024367;28;24555;-77
2023/07/09 03:23:48;;;;;;;5.03;4.22;;;;;;;17.96;100.00;96302.94;5033202;28;24435;-78
2023/07/09 03:26:15;;;;;;;6.15;4.25;;;;;;;17.82;100.00;96306.69;5031575;28;24435;-77
2023/07/09 03:28:41;;;;;;;7.32;4.18;;;;;;;17.76;100.00;96307.22;5028359;28;24483;-78
2023/07/09 03:31:08;;;;;;;6.15;4.00;;;;;;;17.72;100.00;96300.53;5023519;28;24794;-76
2023/07/09 03:33:34;;;;;;;7.32;4.15;;;;;;;17.73;100.00;96298.75;5028807;28;24451;-78
2023/07/09 03:36:01;;;;;;;7.88;4.22;;;;;;;17.71;100.00;96303.28;5024713;28;24444;-77
2023/07/09 03:38:28;;;;;;;7.60;4.18;;;;;;;17.67;100.00;96308.78;5016285;28;24439;-78
2023/07/09 03:40:56;;;;;;;6.50;4.40;;;;;;;17.84;100.00;96314.44;5027951;28;24467;-78
2023/07/09 03:43:23;;;;;;;8.90;5.40;;;;;;;17.96;100.00;96317.84;5023531;28;24961;-79
2023/07/09 03:45:51;;;;;;;9.50;5.70;;;;;;;17.93;100.00;96305.81;5024217;28;24465;-79
2023/07/09 03:48:20;;;;;;;7.07;5.30;;;;;;;17.97;100.00;96309.81;5026392;28;24435;-79
2023/07/09 03:50:48;;;;;;;6.93;4.75;;;;;;;18.08;100.00;96312.38;5026913;28;24514;-79
2023/07/09 03:53:16;;;;;;;9.13;4.75;;;;;;;18.09;100.00;96305.34;5034405;28;24988;-79
2023/07/09 03:55:43;;;;;;;7.93;5.30;;;;;;;18.19;100.00;96310.66;5032795;28;24435;-79
2023/07/09 03:58:10;;;;;;;7.40;4.15;;;;;;;18.21;100.00;96306.94;5032792;28;24447;-79
2023/07/09 04:00:37;;;;;;;7.43;4.50;;;;;;;18.30;100.00;96310.56;5031844;28;24459;-78
2023/07/09 04:03:03;;;;;;;6.40;4.20;;;;;;;18.21;100.00;96308.75;5031177;28;24490;-79
2023/07/09 04:05:30;;;;;;;7.60;4.68;;;;;;;18.15;100.00;96312.69;5032887;28;25001;-79
2023/07/09 04:07:56;;;;;;;5.85;4.32;;;;;;;18.20;100.00;96314.91;5033085;28;24906;-79
2023/07/09 04:10:23;;;;;;;6.28;4.25;;;;;;;18.25;100.00;96315.38;5026605;28;24424;-78
2023/07/09 04:12:49;;;;;;;5.30;4.60;;;;;;;18.18;100.00;96311.63;5035343;28;24432;-76
2023/07/09 04:15:17;;;;;;;5.68;4.65;;;;;;;18.18;100.00;96316.84;5023438;28;24491;-76
2023/07/09 04:17:44;;;;;;;6.82;4.95;;;;;;;18.14;100.00;96317.13;5029049;28;25015;-76
2023/07/09 04:20:11;;;;;;;10.70;4.87;;;;;;;18.24;100.00;96313.69;5023847;28;24541;-76
2023/07/09 04:22:37;;;;;;;7.25;4.72;;;;;;;18.36;100.00;96315.31;5034606;28;24996;-78
2023/07/09 04:25:09;;;;;;;7.20;4.70;;;;;;;18.48;100.00;96318.66;5030850;28;24427;-78
2023/07/09 04:27:36;;;;;;;5.50;4.10;;;;;;;18.62;100.00;96315.69;5022235;28;24432;-78
2023/07/09 04:30:05;;;;;;;7.40;4.83;;;;;;;18.74;100.00;96316.44;5033309;28;24439;-78
2023/07/09 04:32:32;;;;;;;6.75;4.20;;;;;;;18.80;100.00;96323.75;5019943;28;24447;-78
2023/07/09 04:34:59;;;;;;;8.40;4.60;;;;;;;18.83;100.00;96323.50;5036457;28;24436;-78
2023/07/09 04:37:26;;;;;;;6.30;4.43;;;;;;;18.83;100.00;96329.56;5037625;28;24435;-78
2023/07/09 04:39:52;;;;;;;5.95;4.50;;;;;;;18.81;100.00;96328.06;5037583;28;24953;-78
2023/07/09 04:42:18;;;;;;;7.60;4.23;;;;;;;18.79;100.00;96329.97;5038502;28;24431;-78
2023/07/09 04:44:46;;;;;;;6.50;5.03;;;;;;;18.88;100.00;96328.38;5038706;28;24447;-78
2023/07/09 04:47:12;;;;;;;5.18;4.65;;;;;;;18.99;100.00;96326.47;5032667;28;24444;-78
2023/07/09 04:49:41;;;;;;;4.87;4.33;;;;;;;18.88;100.00;96329.19;5031057;28;24533;-78
2023/07/09 04:52:10;;;;;;;5.72;4.75;;;;;;;19.03;100.00;96334.91;5038550;28;24511;-78
2023/07/09 04:54:38;;;;;;;7.45;4.65;;;;;;;19.07;100.00;96339.75;5034953;28;24494;-78
2023/07/09 04:57:05;;;;;;;7.28;4.35;;;;;;;19.00;100.00;96340.41;5038279;28;24432;-78
2023/07/09 04:59:32;;;;;;;6.27;4.40;;;;;;;19.13;100.00;96330.47;5031254;28;24442;-78
2023/07/09 05:01:59;;;;;;;7.65;4.65;;;;;;;19.27;100.00;96334.53;5031657;28;24475;-78
2023/07/09 05:04:26;;;;;;;9.18;4.95;;;;;;;19.27;100.00;96337.16;5036304;28;24438;-78
2023/07/09 05:06:53;;;;;;;8.00;4.63;;;;;;;19.50;100.00;96337.72;5026721;28;24436;-78
2023/07/09 05:09:20;;;;;;;5.28;4.78;;;;;;;19.71;100.00;96340.25;5032451;28;24435;-78
2023/07/09 05:11:47;;;;;;;6.53;4.32;;;;;;;19.91;100.00;96341.91;5032978;28;24456;-78
2023/07/09 05:14:13;;;;;;;5.93;4.15;;;;;;;20.09;100.00;96343.81;5020896;28;24444;-78
2023/07/09 05:16:39;;;;;;;7.72;4.20;;;;;;;20.21;100.00;96338.25;5019044;28;24863;-78
2023/07/09 05:19:08;;;;;;;5.40;4.65;;;;;;;20.38;100.00;96343.75;5029682;28;24448;-78
2023/07/09 05:21:34;;;;;;;7.45;4.90;;;;;;;20.41;100.00;96344.28;5031698;28;24845;-78
2023/07/09 05:24:02;;;;;;;6.50;4.47;;;;;;;20.51;100.00;96342.50;5021038;28;24491;-79
2023/07/09 05:26:28;;;;;;;6.32;4.97;;;;;;;20.49;100.00;96347.06;5028249;28;24439;-78
2023/07/09 05:28:56;;;;;;;10.02;4.97;;;;;;;20.38;100.00;96343.75;5032038;28;24444;-78
2023/07/09 05:31:23;;;;;;;6.38;4.75;;;;;;;20.23;100.00;96344.19;5031752;28;24515;-78
2023/07/09 05:33:49;;;;;;;12.10;5.13;;;;;;;20.25;100.00;96344.06;5033634;28;24436;-78
2023/07/09 05:36:16;;;;;;;6.85;4.43;;;;;;;20.29;100.00;96345.44;5032897;28;24439;-78
2023/07/09 05:38:43;;;;;;;6.47;4.85;;;;;;;20.45;100.00;96350.91;5032250;28;24459;-78
2023/07/09 05:41:11;;;;;;;5.47;4.55;;;;;;;20.63;100.00;96347.59;5033348;28;24470;-78
2023/07/09 05:43:37;;;;;;;7.22;4.97;;;;;;;20.69;100.00;96344.34;5033568;28;24435;-78
2023/07/09 05:46:06;;;;;;;8.88;4.90;;;;;;;20.89;100.00;96345.94;5033039;28;24436;-79
2023/07/09 05:48:33;;;;;;;6.32;4.72;;;;;;;21.06;100.00;96346.13;5028293;28;24450;-76
2023/07/09 05:50:59;;;;;;;7.30;4.93;;;;;;;20.96;100.00;96343.56;5023457;28;24428;-77
2023/07/09 05:53:26;;;;;;;7.97;4.95;;;;;;;21.21;98.95;96342.88;5021872;28;24482;-77
2023/07/09 05:55:54;;;;;;;7.43;4.32;;;;;;;21.42;98.11;96342.59;5025463;28;24443;-77
2023/07/09 05:58:22;;;;;;;7.70;5.05;;;;;;;21.59;95.75;96335.69;5021428;28;24528;-77
2023/07/09 06:00:52;;;;;;;8.48;4.82;;;;;;;21.67;93.45;96345.47;5029589;28;24498;-77
2023/07/09 06:03:18;;;;;;;8.52;4.55;;;;;;;21.91;98.28;96350.13;5026669;28;24535;-77
2023/07/09 06:05:45;;;;;;;6.25;4.45;;;;;;;22.09;94.09;96350.94;5033938;28;24475;-76
2023/07/09 06:08:12;;;;;;;7.43;4.47;;;;;;;22.23;92.27;96347.78;5026476;28;24846;-76
2023/07/09 06:10:40;;;;;;;6.28;4.55;;;;;;;22.41;89.42;96349.53;5024579;28;24510;-76
2023/07/09 06:13:06;;;;;;;6.57;4.63;;;;;;;22.35;88.33;96356.25;5027366;28;24447;-76
2023/07/09 06:15:34;;;;;;;6.38;4.72;;;;;;;22.35;87.59;96350.16;5024469;28;25077;-76
2023/07/09 06:18:01;;;;;;;9.65;5.28;;;;;;;22.20;89.28;96350.72;5026305;28;24435;-77
2023/07/09 06:20:27;;;;;;;10.83;5.07;;;;;;;22.26;88.71;96356.38;5021112;28;24567;-77
2023/07/09 06:22:54;;;;;;;6.15;4.80;;;;;;;22.34;87.92;96349.34;5027341;28;24458;-77
2023/07/09 06:25:20;;;;;;;8.93;5.03;;;;;;;22.39;86.51;96346.22;5019658;28;24444;-77
2023/07/09 06:27:46;;;;;;;8.30;4.63;;;;;;;22.57;86.25;96349.63;5025118;28;24439;-77
2023/07/09 06:30:14;;;;;;;6.10;4.50;;;;;;;22.61;87.00;96353.59;5025604;28;25145;-77
2023/07/09 06:32:41;;;;;;;8.32;4.55;;;;;;;22.77;85.85;96349.41;5029641;28;24517;-78
2023/07/09 06:35:09;;;;;;;6.78;4.88;;;;;;;22.92;84.68;96348.69;5027180;28;24471;-78
2023/07/09 06:37:35;;;;;;;9.15;4.78;;;;;;;23.10;84.07;96345.97;5034782;28;24514;-77
2023/07/09 06:40:03;;;;;;;7.90;4.77;;;;;;;23.28;83.17;96345.81;5025375;28;24786;-77
2023/07/09 06:42:29;;;;;;;5.50;4.38;;;;;;;23.65;82.28;96342.75;5033951;28;24462;-78
2023/07/09 06:44:56;;;;;;;6.83;4.40;;;;;;;24.00;80.39;96345.31;5034834;28;24440;-78
2023/07/09 06:47:22;;;;;;;7.65;4.72;;;;;;;24.28;76.70;96359.81;5028611;28;24861;-78
2023/07/09 06:49:50;;;;;;;5.70;4.63;;;;;;;24.54;75.47;96348.25;5025090;28;24555;-78
2023/07/09 06:52:17;;;;;;;7.63;4.57;;;;;;;24.69;76.19;96349.19;5027853;28;24440;-77
2023/07/09 06:54:43;;;;;;;22.10;10.90;;;;;;;24.97;74.28;96346.13;5022729;28;24440;-77
2023/07/09 06:57:10;;;;;;;7.15;4.75;;;;;;;25.16;69.84;96343.09;5025863;28;24444;-78
2023/07/09 06:59:37;;;;;;;6.43;4.43;;;;;;;25.17;69.41;96342.09;5027886;28;24501;-78
2023/07/09 07:02:04;;;;;;;7.05;4.50;;;;;;;25.22;67.92;96345.06;5026929;28;24640;-78
2023/07/09 07:04:31;;;;;;;7.95;4.65;;;;;;;25.27;68.80;96344.53;5024872;28;24432;-78
2023/07/09 07:06:59;;;;;;;6.82;4.50;;;;;;;25.41;68.28;96340.31;5025661;28;25090;-78
2023/07/09 07:09:25;;;;;;;8.60;4.82;;;;;;;25.61;67.31;96341.50;5020256;28;24436;-77
2023/07/09 07:11:52;;;;;;;6.30;4.55;;;;;;;25.79;65.74;96347.38;5031742;28;24428;-78
2023/07/09 07:14:18;;;;;;;5.88;4.20;;;;;;;25.99;65.46;96346.91;5027183;28;24442;-78
2023/07/09 07:16:45;;;;;;;5.15;4.10;;;;;;;26.23;63.32;96340.56;5023690;28;24475;-76
2023/07/09 07:19:11;;;;;;;8.00;4.33;;;;;;;26.31;59.83;96343.97;5025056;28;24436;-77
2023/07/09 07:21:37;;;;;;;8.50;3.63;;;;;;;26.68;60.08;96336.16;5026853;28;24841;-76
2023/07/09 07:24:06;;;;;;;6.28;3.97;;;;;;;26.78;55.98;96331.41;5027535;28;25004;-76
2023/07/09 07:26:33;;;;;;;11.52;4.47;;;;;;;26.75;54.93;96335.25;5025136;28;24535;-76
2023/07/09 07:29:00;;;;;;;6.32;3.67;;;;;;;27.01;56.19;96340.09;5030626;28;24446;-78
2023/07/09 07:31:26;;;;;;;7.72;4.35;;;;;;;27.42;55.13;96341.41;5027996;28;24482;-76
2023/07/09 07:33:52;;;;;;;4.57;3.35;;;;;;;27.49;51.64;96337.81;5024496;28;24439;-76
2023/07/09 07:36:19;;;;;;;5.20;3.72;;;;;;;27.34;52.14;96336.22;5022752;28;24539;-76
2023/07/09 07:38:46;;;;;;;6.07;4.07;;;;;;;27.43;53.84;96338.56;5016048;28;24497;-76
2023/07/09 07:41:13;;;;;;;6.10;4.10;;;;;;;27.50;53.03;96334.13;5026192;28;25047;-76
2023/07/09 07:43:40;;;;;;;11.43;3.90;;;;;;;27.63;50.50;96335.31;5020754;28;24443;-76
2023/07/09 07:46:07;;;;;;;6.65;4.18;;;;;;;27.86;49.14;96335.16;5021231;28;24432;-76
2023/07/09 07:48:34;;;;;;;7.88;3.50;;;;;;;27.98;48.20;96333.63;5016842;28;24535;-76
2023/07/09 07:51:02;;;;;;;7.70;3.35;;;;;;;28.07;45.79;96329.81;5027997;28;24486;-78
2023/07/09 07:53:29;;;;;;;6.03;3.63;;;;;;;28.12;48.43;96331.91;5027823;28;24432;-78
2023/07/09 07:55:56;;;;;;;4.70;3.75;;;;;;;28.15;48.21;96326.19;5034159;28;24441;-78
2023/07/09 07:58:24;;;;;;;7.30;3.75;;;;;;;28.00;47.89;96334.25;5029638;28;24478;-78
2023/07/09 08:00:50;;;;;;;9.48;4.30;;;;;;;28.09;48.98;96326.97;5026183;28;24463;-76
2023/07/09 08:03:17;;;;;;;8.07;4.18;;;;;;;28.16;48.21;96326.00;5028458;28;24530;-76
2023/07/09 08:05:43;;;;;;;5.28;3.58;;;;;;;28.37;46.59;96326.97;5028410;28;25015;-76
2023/07/09 08:08:10;;;;;;;8.63;3.75;;;;;;;28.45;45.20;96326.84;5029974;28;24440;-76
2023/07/09 08:10:37;;;;;;;12.02;4.13;;;;;;;28.55;44.51;96323.84;5027121;28;24459;-76
2023/07/09 08:13:03;;;;;;;6.05;3.33;;;;;;;28.70;43.37;96324.53;5026185;28;24433;-76
2023/07/09 08:15:31;;;;;;;7.03;3.90;;;;;;;28.83;42.21;96319.28;5017245;28;24454;-76
2023/07/09 08:17:57;;;;;;;5.72;3.20;;;;;;;29.08;42.43;96316.97;5023974;28;24493;-76
2023/07/09 08:20:24;;;;;;;5.18;3.42;;;;;;;29.12;42.00;96312.06;5019496;28;24850;-77
2023/07/09 08:22:50;;;;;;;6.47;3.45;;;;;;;29.71;42.76;96319.47;5023644;28;24460;-77
2023/07/09 08:25:17;;;;;;;7.38;3.40;;;;;;;29.56;40.55;96319.59;5021807;28;24533;-77
2023/07/09 08:27:43;;;;;;;7.38;3.83;;;;;;;29.33;40.63;96319.09;5030005;28;24440;-77
2023/07/09 08:30:11;;;;;;;5.40;3.20;;;;;;;29.86;42.89;96319.28;5031811;28;24973;-76
2023/07/09 08:32:39;;;;;;;5.93;3.53;;;;;;;30.47;40.33;96315.59;5036039;28;24435;-77
2023/07/09 08:35:06;;;;;;;4.70;3.00;;;;;;;30.74;40.46;96317.22;5031006;28;24984;-78
2023/07/09 08:37:32;;;;;;;5.07;3.47;;;;;;;30.76;38.28;96317.81;5037795;28;24556;-78
2023/07/09 08:39:58;;;;;;;8.63;3.33;;;;;;;30.41;38.20;96322.59;5032759;28;24435;-77
2023/07/09 08:42:30;;;;;;;4.88;3.30;;;;;;;30.38;38.01;96326.50;5029757;28;24465;-77
2023/07/09 08:45:09;;;;;;;6.97;3.47;;;;;;;30.36;37.24;96319.72;5031459;28;24443;-78
2023/07/09 08:47:46;;;;;;;6.25;3.40;;;;;;;30.34;37.26;96321.78;5032721;28;24481;-77
2023/07/09 08:50:16;;;;;;;6.70;3.60;;;;;;;30.14;38.34;96322.56;5032113;28;24988;-77
2023/07/09 08:52:45;;;;;;;6.07;3.47;;;;;;;30.06;38.29;96317.44;5029090;28;24491;-78
2023/07/09 08:55:14;;;;;;;7.00;3.57;;;;;;;30.08;37.94;96322.59;5029194;28;24432;-78
2023/07/09 08:57:44;;;;;;;5.38;3.13;;;;;;;30.34;37.89;96322.59;5031881;28;24440;-78
2023/07/09 09:00:16;;;;;;;5.63;3.67;;;;;;;30.33;37.48;96323.63;5034497;28;24438;-78
2023/07/09 09:02:50;;;;;;;4.70;3.08;;;;;;;30.48;36.94;96318.06;5028575;28;24857;-78
2023/07/09 09:05:19;;;;;;;7.50;3.47;;;;;;;30.74;36.82;96316.34;5032931;28;24432;-77
2023/07/09 09:07:51;;;;;;;5.23;3.20;;;;;;;30.77;36.45;96316.78;5026259;28;24451;-80
2023/07/09 09:10:23;;;;;;;8.23;3.47;;;;;;;30.98;37.00;96321.06;5025915;28;24862;-80
2023/07/09 09:13:04;;;;;;;7.60;4.05;;;;;;;30.95;37.51;96326.81;5035455;28;24584;-79
2023/07/09 09:15:32;;;;;;;4.13;3.30;;;;;;;30.73;37.35;96323.56;5034070;28;24506;-82
2023/07/09 09:18:21;;;;;;;5.03;3.50;;;;;;;30.92;37.14;96315.72;5027272;28;24447;-79
2023/07/09 09:20:56;;;;;;;6.80;3.92;;;;;;;31.18;37.57;96320.16;5031656;28;24432;-78
2023/07/09 09:23:26;;;;;;;5.77;3.30;;;;;;;31.34;36.11;96319.72;5029638;28;24451;-78
2023/07/09 09:25:56;;;;;;;8.18;3.90;;;;;;;31.45;36.91;96315.53;5027633;28;24498;-78
2023/07/09 09:28:25;;;;;;;7.93;3.63;;;;;;;32.00;37.27;96327.38;5022874;28;24478;-78
2023/07/09 09:30:51;;;;;;;5.35;3.78;;;;;;;32.16;35.37;96325.19;5025721;28;24471;-78
2023/07/09 09:33:19;;;;;;;5.45;3.65;;;;;;;32.28;35.15;96318.88;5027960;28;24512;-79
2023/07/09 09:35:47;;;;;;;5.70;3.33;;;;;;;32.11;34.95;96322.34;5034863;28;24455;-78
2023/07/09 09:38:17;;;;;;;4.93;3.38;;;;;;;32.12;35.55;96324.81;5026281;28;24499;-78
2023/07/09 09:40:44;;;;;;;6.97;3.78;;;;;;;32.22;34.21;96330.47;5028594;28;24428;-78
2023/07/09 09:43:14;;;;;;;6.38;3.47;;;;;;;32.77;32.41;96327.94;5030789;28;24455;-78
2023/07/09 09:45:43;;;;;;;6.27;3.03;;;;;;;33.29;31.22;96316.84;5030913;28;24493;-78
2023/07/09 09:48:16;;;;;;;4.93;2.88;;;;;;;33.60;30.97;96315.03;5028545;28;24451;-78
2023/07/09 09:50:46;;;;;;;6.82;3.40;;;;;;;33.41;28.99;96306.16;5023261;28;24436;-78
2023/07/09 09:53:20;;;;;;;4.30;3.00;;;;;;;33.26;28.59;96309.22;5022256;28;24467;-78
2023/07/09 09:55:47;;;;;;;4.72;3.13;;;;;;;33.29;29.52;96313.34;5032002;28;24488;-78
2023/07/09 09:58:16;;;;;;;3.57;2.80;;;;;;;33.16;29.20;96306.28;5040725;28;24436;-77
2023/07/09 10:00:49;;;;;;;8.27;3.25;;;;;;;33.09;30.54;96308.22;5039762;28;24522;-77
2023/07/09 10:03:15;;;;;;;3.83;3.20;;;;;;;33.38;29.28;96307.44;5029175;28;25000;-78
2023/07/09 10:05:49;;;;;;;14.68;3.55;;;;;;;33.38;29.23;96302.06;5036697;28;24996;-78
2023/07/09 10:08:24;;;;;;;7.25;3.40;;;;;;;33.49;27.87;96303.19;5031980;28;24901;-78
2023/07/09 10:10:56;;;;;;;14.38;3.25;;;;;;;33.53;28.66;96293.63;5031185;28;24794;-78
2023/07/09 10:13:31;;;;;;;7.53;3.08;;;;;;;33.85;29.99;96304.94;5029289;28;24478;-78
2023/07/09 10:16:06;;;;;;;6.22;3.10;;;;;;;33.76;27.55;96294.75;5027809;28;24443;-78
2023/07/09 10:18:46;;;;;;;7.35;3.10;;;;;;;33.94;27.68;96290.13;5032633;28;24506;-77
2023/07/09 10:21:19;;;;;;;6.30;3.35;;;;;;;33.95;29.20;96294.44;5035240;28;24805;-77
2023/07/09 10:23:53;;;;;;;5.10;3.13;;;;;;;33.88;26.81;96293.72;5027717;28;24854;-79
2023/07/09 10:26:27;;;;;;;5.78;3.22;;;;;;;33.79;26.88;96287.06;5030854;28;24478;-79
2023/07/09 10:29:22;;;;;;;8.27;3.10;;;;;;;33.70;26.73;96299.97;5032664;28;24440;-77
2023/07/09 10:31:56;;;;;;;5.73;2.90;;;;;;;33.71;28.00;96295.44;5014131;28;24424;-78
2023/07/09 10:34:29;;;;;;;4.53;3.07;;;;;;;33.67;27.19;96288.88;5021166;28;24798;-80
2023/07/09 10:37:18;;;;;;;5.28;2.80;;;;;;;33.95;28.66;96290.94;5030774;28;24447;-78
2023/07/09 10:39:48;;;;;;;6.30;3.33;;;;;;;34.15;28.91;96280.72;5025015;28;24436;-79
2023/07/09 10:42:21;;;;;;;7.00;3.20;;;;;;;34.27;27.40;96274.53;5031439;28;24454;-78
2023/07/09 10:44:57;;;;;;;5.43;3.20;;;;;;;33.40;26.48;96273.13;5034072;28;24523;-78
2023/07/09 10:47:30;;;;;;;8.27;3.03;;;;;;;33.86;28.56;96282.41;5027074;28;24443;-77
2023/07/09 10:49:58;;;;;;;4.00;2.63;;;;;;;34.01;28.91;96278.50;5024398;28;24440;-77
2023/07/09 10:52:30;;;;;;;7.10;3.60;;;;;;;33.86;27.30;96270.84;5028334;28;24523;-77
2023/07/09 10:55:02;;;;;;;6.72;3.22;;;;;;;33.62;26.88;96269.94;5024881;28;25112;-77
2023/07/09 10:57:31;;;;;;;3.80;3.10;;;;;;;33.76;27.41;96265.22;5015490;28;24517;-78
2023/07/09 10:59:58;;;;;;;7.40;3.10;;;;;;;33.94;26.23;96270.50;5034492;28;25043;-78
2023/07/09 11:02:27;;;;;;;4.88;3.20;;;;;;;34.02;27.10;96264.00;5029302;28;24546;-75
2023/07/09 11:04:56;;;;;;;5.38;3.63;;;;;;;33.77;25.54;96264.16;5030041;28;24432;-78
2023/07/09 11:07:30;;;;;;;4.93;3.38;;;;;;;33.84;25.46;96263.00;5024019;28;24838;-76
2023/07/09 11:09:59;;;;;;;4.50;3.03;;;;;;;34.15;26.17;96272.66;5031306;28;24501;-77
2023/07/09 11:12:34;;;;;;;6.63;3.20;;;;;;;34.06;24.12;96270.53;5034222;28;24466;-79
2023/07/09 11:15:04;;;;;;;5.07;3.05;;;;;;;33.78;23.94;96269.28;5030318;28;24446;-78
2023/07/09 11:17:33;;;;;;;7.15;2.95;;;;;;;33.52;24.44;96261.63;5025856;28;24609;-79
2023/07/09 11:20:07;;;;;;;7.65;3.67;;;;;;;33.46;25.16;96271.41;5032168;28;24490;-79
2023/07/09 11:22:39;;;;;;;3.87;2.77;;;;;;;33.71;25.48;96263.22;5031370;28;24515;-78
2023/07/09 11:25:09;;;;;;;5.93;3.22;;;;;;;33.97;24.44;96260.09;5027168;28;24438;-80
2023/07/09 11:27:46;;;;;;;8.10;3.47;;;;;;;34.36;22.66;96263.19;5030216;28;24443;-78
2023/07/09 11:30:22;;;;;;;7.30;3.93;;;;;;;34.71;25.72;96259.69;5018304;28;24439;-80
2023/07/09 11:32:54;;;;;;;6.30;3.60;;;;;;;34.66;25.85;96246.91;5033857;28;25206;-79
2023/07/09 11:35:23;;;;;;;4.28;3.38;;;;;;;34.66;23.90;96262.25;5031159;28;24511;-80